Sacramento, California
Traffic Map
Current Weather Conditions
Sacramento, California
Clear
Clear
17°
Feels Like: 17°
Wind Chill: 17° Ceiling: Unl
Heat Index: 17° Visibility: 10mi
Dew Point: 14° Wind: 3mph
Humidity: 84% Direction: 160° (SSE)
Pressure: 30in Gusts: 0mph
Raw Report DataKSAC 221553Z 16003KT 10SM CLR 17/14 A3000 RMK AO2 SLP160 T01720144
Traffic Incident Summary
Active as of:
Severity:
Category:
InformationThere was an issue retrieving the traffic information for this location. Please try a different location or try again shortly.
Advertisements
Track Severe Weather on mobile